createdAt,value
2022-11-11T00:01:22.438Z,2.90
2022-11-11T00:06:44.075Z,2.90
2022-11-11T00:12:06.320Z,2.50
2022-11-11T00:17:46.520Z,2.73
2022-11-11T00:23:41.350Z,2.97
2022-11-11T00:29:02.906Z,2.60
2022-11-11T00:34:25.965Z,2.97
2022-11-11T00:39:47.221Z,2.53
2022-11-11T00:45:09.813Z,3.20
2022-11-11T00:50:50.103Z,2.77
2022-11-11T00:56:11.731Z,3.17
2022-11-11T01:01:33.303Z,2.60
2022-11-11T01:06:56.258Z,2.30
2022-11-11T01:12:18.081Z,2.53
2022-11-11T01:17:39.326Z,2.30
2022-11-11T01:23:02.106Z,2.90
2022-11-11T01:28:24.370Z,2.40
2022-11-11T01:33:46.412Z,3.17
2022-11-11T01:39:10.591Z,2.30
2022-11-11T01:44:47.532Z,2.30
2022-11-11T01:50:10.285Z,2.10
2022-11-11T01:55:34.185Z,2.60
2022-11-11T02:00:55.421Z,2.10
2022-11-11T02:06:17.173Z,2.43
2022-11-11T02:12:00.473Z,2.70
2022-11-11T02:17:22.095Z,2.13
2022-11-11T02:22:55.078Z,2.33
2022-11-11T02:28:19.265Z,2.40
2022-11-11T02:33:40.827Z,2.67
2022-11-11T02:39:02.668Z,2.30
2022-11-11T02:44:25.811Z,2.27
2022-11-11T02:49:47.123Z,2.73
2022-11-11T02:55:09.598Z,2.70
2022-11-11T03:00:32.474Z,3.27
2022-11-11T03:05:53.992Z,2.20
2022-11-11T03:11:15.544Z,2.40
2022-11-11T03:16:56.071Z,2.20
2022-11-11T03:27:59.059Z,2.50
2022-11-11T03:33:21.983Z,2.13
2022-11-11T03:38:43.424Z,2.50
2022-11-11T03:44:04.799Z,2.10
2022-11-11T03:49:27.439Z,2.50
2022-11-11T03:54:48.703Z,2.13
2022-11-11T04:00:14.624Z,2.10
2022-11-11T04:05:55.267Z,1.90
2022-11-11T04:11:28.158Z,2.00
2022-11-11T04:16:49.638Z,2.10
2022-11-11T04:22:12.437Z,1.90
2022-11-11T04:27:33.906Z,2.43
2022-11-11T04:32:55.037Z,1.50
2022-11-11T04:38:35.440Z,2.00
2022-11-11T04:44:14.259Z,1.70
2022-11-11T04:49:36.121Z,1.60
2022-11-11T04:55:21.569Z,1.83
2022-11-11T05:00:43.574Z,1.80
2022-11-11T05:06:23.054Z,2.77
2022-11-11T05:11:45.851Z,1.80
2022-11-11T05:17:25.042Z,1.97
2022-11-11T05:22:46.615Z,1.87
2022-11-11T05:28:09.218Z,1.70
2022-11-11T05:33:30.555Z,1.53
2022-11-11T05:38:51.875Z,2.50
2022-11-11T05:44:14.427Z,2.30
2022-11-11T05:49:35.873Z,2.30
2022-11-11T05:54:57.335Z,1.60
2022-11-11T06:00:20.635Z,1.70
2022-11-11T06:05:42.165Z,1.70
2022-11-11T06:11:03.489Z,2.23
2022-11-11T06:16:26.246Z,1.80
2022-11-11T06:22:00.971Z,1.50
2022-11-11T06:27:22.799Z,1.30
2022-11-11T06:32:45.267Z,1.00
2022-11-11T06:38:08.267Z,1.60
2022-11-11T06:43:30.390Z,1.73
2022-11-11T06:48:53.026Z,1.40
2022-11-11T06:54:15.181Z,1.80
2022-11-11T06:59:36.579Z,1.33
2022-11-11T07:04:59.455Z,1.60
2022-11-11T07:10:21.247Z,1.67
2022-11-11T07:15:43.211Z,1.57
2022-11-11T07:21:06.374Z,1.50
2022-11-11T07:26:27.890Z,1.30
2022-11-11T07:31:51.186Z,1.17
2022-11-11T07:37:14.123Z,1.20
2022-11-11T07:42:37.074Z,1.37
2022-11-11T07:47:58.490Z,1.40
2022-11-11T07:53:21.531Z,1.40
2022-11-11T07:58:43.260Z,1.20
2022-11-11T08:04:04.825Z,1.40
2022-11-11T08:09:27.742Z,1.40
2022-11-11T08:14:48.950Z,1.23
2022-11-11T08:20:11.774Z,1.27
2022-11-11T08:25:34.318Z,1.60
2022-11-11T08:30:59.050Z,1.30
2022-11-11T08:36:25.396Z,1.30
2022-11-11T08:41:48.539Z,1.50
2022-11-11T08:47:10.006Z,1.07
2022-11-11T08:52:31.391Z,1.77
2022-11-11T08:58:00.618Z,1.70
2022-11-11T09:03:22.507Z,1.20
2022-11-11T09:08:44.942Z,1.27
2022-11-11T09:14:07.632Z,0.93
2022-11-11T09:19:28.897Z,1.20
2022-11-11T09:24:50.085Z,1.10
2022-11-11T09:30:13.743Z,1.10
2022-11-11T09:35:35.679Z,1.10
2022-11-11T09:41:07.711Z,1.10
2022-11-11T09:46:36.699Z,1.10
2022-11-11T09:52:03.625Z,1.07
2022-11-11T09:57:36.299Z,1.37
2022-11-11T10:03:07.391Z,1.27
2022-11-11T10:08:30.983Z,1.23
2022-11-11T10:13:56.984Z,0.83
2022-11-11T10:19:30.744Z,1.07
2022-11-11T10:25:04.551Z,1.30
2022-11-11T10:30:31.871Z,1.00
2022-11-11T10:35:57.724Z,1.00
2022-11-11T10:41:22.777Z,0.97
2022-11-11T10:46:54.592Z,1.20
2022-11-11T10:52:23.927Z,1.00
2022-11-11T10:57:51.541Z,1.27
2022-11-11T11:03:17.560Z,1.27
2022-11-11T11:08:46.319Z,1.20
2022-11-11T11:14:11.845Z,1.30
2022-11-11T11:19:33.540Z,1.20
2022-11-11T11:25:11.369Z,1.20
2022-11-11T11:30:33.111Z,0.90
2022-11-11T11:35:54.443Z,1.10
2022-11-11T11:41:17.738Z,1.17
2022-11-11T11:46:40.431Z,0.90
2022-11-11T11:52:07.707Z,1.00
2022-11-11T11:57:42.967Z,1.20
2022-11-11T12:03:25.831Z,1.00
2022-11-11T12:08:59.280Z,1.00
2022-11-11T12:14:54.844Z,1.10
2022-11-11T12:20:22.073Z,1.30
2022-11-11T12:26:02.704Z,1.30
2022-11-11T12:31:35.078Z,1.40
2022-11-11T12:37:02.074Z,1.00
2022-11-11T12:42:37.123Z,1.23
2022-11-11T12:48:16.547Z,1.30
2022-11-11T12:53:48.533Z,1.60
2022-11-11T12:59:20.505Z,1.40
2022-11-11T13:04:58.279Z,1.50
2022-11-11T13:10:29.597Z,1.60
2022-11-11T13:15:53.301Z,1.20
2022-11-11T13:21:19.267Z,1.17
2022-11-11T13:26:45.000Z,1.47
2022-11-11T13:32:10.873Z,2.00
2022-11-11T13:37:34.591Z,2.40
2022-11-11T13:42:56.328Z,6.13
2022-11-11T13:48:22.932Z,5.83
2022-11-11T13:53:49.124Z,4.60
2022-11-11T13:59:22.685Z,5.00
2022-11-11T14:05:17.612Z,6.70
2022-11-11T14:10:56.667Z,6.20
2022-11-11T14:17:02.106Z,6.17
2022-11-11T14:22:32.428Z,6.83
2022-11-11T14:27:55.197Z,5.10
2022-11-11T14:33:31.344Z,6.40
2022-11-11T14:39:05.283Z,7.53
2022-11-11T14:44:42.525Z,7.93
2022-11-11T14:50:25.740Z,8.33
2022-11-11T14:55:55.363Z,7.50
2022-11-11T15:01:20.971Z,6.87
2022-11-11T15:06:47.151Z,4.37
2022-11-11T15:12:28.863Z,5.30
2022-11-11T15:18:02.924Z,7.23
2022-11-11T15:23:34.427Z,5.83
2022-11-11T15:29:11.720Z,6.03
2022-11-11T15:34:41.748Z,9.40
2022-11-11T15:40:05.181Z,3.40
2022-11-11T15:45:34.755Z,3.03
2022-11-11T15:50:58.470Z,3.87
2022-11-11T15:56:30.424Z,3.30
2022-11-11T16:01:53.314Z,3.37
2022-11-11T16:07:21.526Z,2.73
2022-11-11T16:12:47.420Z,3.80
2022-11-11T16:18:16.273Z,4.73
2022-11-11T16:23:40.003Z,6.53
2022-11-11T16:29:01.481Z,6.23
2022-11-11T16:34:35.656Z,7.90
2022-11-11T16:40:36.561Z,12.80
2022-11-11T16:46:03.874Z,14.63
2022-11-11T16:51:38.261Z,9.73
2022-11-11T16:57:01.523Z,11.20
2022-11-11T17:02:26.102Z,10.67
2022-11-11T17:07:47.515Z,12.20
2022-11-11T17:13:10.425Z,18.53
2022-11-11T17:18:35.319Z,13.53
2022-11-11T17:23:56.847Z,18.03
2022-11-11T17:29:19.762Z,18.53
2022-11-11T17:34:41.220Z,22.60
2022-11-11T17:40:02.664Z,18.70
2022-11-11T17:45:25.208Z,13.57
2022-11-11T17:50:46.511Z,18.00
2022-11-11T17:56:10.403Z,18.67
2022-11-11T18:01:33.058Z,16.57
2022-11-11T18:06:54.977Z,17.07
2022-11-11T18:12:17.055Z,24.43
2022-11-11T18:17:39.619Z,26.07
2022-11-11T18:23:01.202Z,24.60
2022-11-11T18:28:22.435Z,29.63
2022-11-11T18:33:45.921Z,37.77
2022-11-11T18:39:07.157Z,38.43
2022-11-11T18:44:28.309Z,30.47
2022-11-11T18:49:51.330Z,26.33
2022-11-11T18:55:13.014Z,21.93
2022-11-11T19:00:34.339Z,23.07
2022-11-11T19:06:00.777Z,19.90
2022-11-11T19:11:22.172Z,19.30
2022-11-11T19:16:44.052Z,20.40
2022-11-11T19:22:07.032Z,18.93
2022-11-11T19:27:28.424Z,14.57
2022-11-11T19:32:49.627Z,14.47
2022-11-11T19:38:12.097Z,15.73
2022-11-11T19:43:34.207Z,14.70
2022-11-11T19:48:57.125Z,14.60
2022-11-11T19:54:21.108Z,15.77
2022-11-11T19:59:42.480Z,17.57
2022-11-11T20:05:04.814Z,16.67
2022-11-11T20:10:27.845Z,16.37
2022-11-11T20:15:49.661Z,17.17
2022-11-11T20:21:12.170Z,18.27
2022-11-11T20:26:34.751Z,17.50
2022-11-11T20:31:56.503Z,17.57
2022-11-11T20:37:18.247Z,16.60
2022-11-11T20:42:41.188Z,16.80
2022-11-11T20:48:02.928Z,16.87
2022-11-11T20:53:24.478Z,15.77
2022-11-11T20:58:48.643Z,14.33
2022-11-11T21:04:10.377Z,15.87
2022-11-11T21:09:32.054Z,46.30
2022-11-11T21:14:54.788Z,46.40
2022-11-11T21:20:17.640Z,27.03
2022-11-11T21:25:39.089Z,24.07
2022-11-11T21:31:02.731Z,19.20
2022-11-11T21:36:26.413Z,17.20
2022-11-11T21:41:47.757Z,15.40
2022-11-11T21:47:11.594Z,13.43
2022-11-11T21:52:32.863Z,15.50
2022-11-11T21:57:54.151Z,14.70
2022-11-11T22:03:16.698Z,13.83
2022-11-11T22:08:39.639Z,13.60
2022-11-11T22:14:02.653Z,13.53
2022-11-11T22:19:25.323Z,13.20
2022-11-11T22:24:46.632Z,13.63
2022-11-11T22:30:09.098Z,11.70
2022-11-11T22:35:33.774Z,12.43
2022-11-11T22:40:55.468Z,12.70
2022-11-11T22:46:19.311Z,12.90
2022-11-11T22:51:44.286Z,12.20
2022-11-11T22:57:05.583Z,12.30
2022-11-11T23:02:28.024Z,11.70
2022-11-11T23:07:51.120Z,12.57
2022-11-11T23:13:12.413Z,10.50
2022-11-11T23:18:33.815Z,10.27
2022-11-11T23:23:57.551Z,10.93
2022-11-11T23:29:18.890Z,10.10
2022-11-11T23:34:40.272Z,8.53
2022-11-11T23:40:03.027Z,8.33
2022-11-11T23:45:24.607Z,7.83
2022-11-11T23:50:46.476Z,7.63
2022-11-11T23:56:09.514Z,7.30
